Time;durP1;ratioP1;P1;durP2;ratioP2;P2;SDS_P1;SDS_P2;PMS_P1;PMS_P2;Temp;Humidity;BMP_temperature;BMP_pressure;BME280_temperature;BME280_humidity;BME280_pressure;Samples;Min_cycle;Max_cycle;Signal;HPM_P1;HPM_P2
2022/09/20 00:00:46;;;;;;;;;;;;;;;16.82;56.06;101202.78;4971265;28;7141;-74
2022/09/20 00:03:14;;;;;;;;;;;;;;;16.82;56.18;101193.28;4974336;28;6832;-74
2022/09/20 00:05:43;;;;;;;;;;;;;;;16.84;56.61;101196.81;4953070;28;6973;-74
2022/09/20 00:08:15;;;;;;;;;;;;;;;16.85;56.51;101197.69;4972854;28;7620;-74
2022/09/20 00:10:41;;;;;;;;;;;;;;;16.84;56.23;101191.63;4962191;28;7269;-75
2022/09/20 00:13:12;;;;;;;;;;;;;;;16.84;56.37;101190.75;4976364;28;8112;-74
2022/09/20 00:15:44;;;;;;;;;;;;;;;16.85;56.54;101197.69;4973128;28;7106;-75
2022/09/20 00:18:11;;;;;;;;;;;;;;;16.84;56.53;101191.63;4958554;28;6980;-75
2022/09/20 00:20:48;;;;;;;;;;;;;;;16.83;56.04;101186.41;4986174;28;6839;-75
2022/09/20 00:23:14;;;;;;;;;;;;;;;16.82;56.83;101188.13;4978621;28;6995;-74
2022/09/20 00:25:40;;;;;;;;;;;;;;;16.81;56.11;101191.53;4956282;28;7238;-75
2022/09/20 00:28:06;;;;;;;;;;;;;;;16.82;56.78;101192.44;4954607;28;7079;-75
2022/09/20 00:30:32;;;;;;;;;;;;;;;16.83;56.95;101194.19;4985904;28;6787;-75
2022/09/20 00:32:59;;;;;;;;;;;;;;;16.83;56.40;101194.19;4976717;28;6809;-75
2022/09/20 00:35:25;;;;;;;;;;;;;;;16.85;56.52;101195.13;4975888;28;6788;-74
2022/09/20 00:37:50;;;;;;;;;;;;;;;16.85;56.80;101201.19;4978379;28;7031;-74
2022/09/20 00:40:21;;;;;;;;;;;;;;;16.85;56.61;101197.69;4956659;28;6947;-75
2022/09/20 00:42:48;;;;;;;;;;;;;;;16.85;56.77;101192.53;4972990;28;6950;-75
2022/09/20 00:45:22;;;;;;;;;;;;;;;16.85;56.55;101198.59;4984901;28;7002;-75
2022/09/20 00:47:58;;;;;;;;;;;;;;;16.85;56.95;101197.69;4958169;28;8206;-75
2022/09/20 00:50:38;;;;;;;;;;;;;;;16.83;56.87;101194.19;4966564;28;6792;-75
2022/09/20 00:53:41;;;;;;;;;;;;;;;16.82;56.47;101190.69;4967191;28;8051;-74
2022/09/20 00:56:33;;;;;;;;;;;;;;;16.82;56.72;101201.06;4973980;28;6883;-75
2022/09/20 00:59:33;;;;;;;;;;;;;;;16.82;56.83;101197.59;4971117;28;7043;-74
2022/09/20 01:02:20;;;;;;;;;;;;;;;16.78;56.83;101202.66;4973554;28;7949;-75
2022/09/20 01:04:48;;;;;;;;;;;;;;;16.78;56.76;101192.28;4973506;28;7173;-75
2022/09/20 01:07:21;;;;;;;;;;;;;;;16.77;56.62;101192.25;4979319;28;6788;-74
2022/09/20 01:09:47;;;;;;;;;;;;;;;16.77;56.86;101185.38;4970890;28;6978;-74
2022/09/20 01:12:22;;;;;;;;;;;;;;;16.77;56.98;101187.94;4955115;28;6967;-74
2022/09/20 01:14:51;;;;;;;;;;;;;;;16.76;56.83;101181.00;4977986;28;6970;-74
2022/09/20 01:17:21;;;;;;;;;;;;;;;16.76;57.13;101188.78;4976550;28;7013;-74
2022/09/20 01:20:15;;;;;;;;;;;;;;;16.76;56.59;101183.59;4983375;28;7209;-74
2022/09/20 01:23:02;;;;;;;;;;;;;;;16.75;57.09;101187.03;4976432;28;7415;-74
2022/09/20 01:26:23;;;;;;;;;;;;;;;16.73;56.92;101174.84;4975857;28;6815;-75
2022/09/20 01:29:06;;;;;;;;;;;;;;;16.71;56.75;101189.44;4974910;28;7526;-75
2022/09/20 01:31:39;;;;;;;;;;;;;;;16.70;56.86;101190.28;4966211;28;8566;-75
2022/09/20 01:34:28;;;;;;;;;;;;;;;16.71;57.25;101194.63;4975048;28;6961;-75
2022/09/20 01:37:14;;;;;;;;;;;;;;;16.68;57.05;101190.22;4973607;28;6824;-74
2022/09/20 01:40:09;;;;;;;;;;;;;;;16.67;56.90;101188.47;4974666;28;8319;-75
2022/09/20 01:43:05;;;;;;;;;;;;;;;16.66;56.81;101191.88;4974375;28;7370;-74
2022/09/20 01:45:31;;;;;;;;;;;;;;;16.64;56.85;101191.81;4968365;28;6820;-74
2022/09/20 01:48:51;;;;;;;;;;;;;;;16.64;56.78;101185.78;4976394;28;6971;-74
2022/09/20 01:51:49;;;;;;;;;;;;;;;16.60;57.05;101189.94;4922132;28;7927;-75
2022/09/20 01:55:04;;;;;;;;;;;;;;;16.58;57.12;101185.53;4928398;28;7245;-75
2022/09/20 01:57:44;;;;;;;;;;;;;;;16.52;57.05;101181.94;4974644;28;7186;-75
2022/09/20 02:00:18;;;;;;;;;;;;;;;16.51;57.13;101180.16;4979636;28;7164;-74
2022/09/20 02:03:11;;;;;;;;;;;;;;;16.50;57.03;101188.72;4973334;28;11649;-74
2022/09/20 02:05:58;;;;;;;;;;;;;;;16.47;57.06;101180.00;4973735;28;6808;-74
2022/09/20 02:08:35;;;;;;;;;;;;;;;16.47;57.11;101182.59;4976409;28;6828;-75
2022/09/20 02:11:37;;;;;;;;;;;;;;;16.47;57.30;101180.00;4989404;28;6979;-75
2022/09/20 02:14:30;;;;;;;;;;;;;;;16.47;57.00;101180.00;4967265;28;7122;-75
2022/09/20 02:17:01;;;;;;;;;;;;;;;16.43;56.74;101183.28;4953198;28;7008;-74
2022/09/20 02:19:52;;;;;;;;;;;;;;;16.37;56.69;101178.78;4948605;28;7032;-74
2022/09/20 02:22:47;;;;;;;;;;;;;;;16.31;56.93;101175.94;4965521;28;6880;-75
2022/09/20 02:25:39;;;;;;;;;;;;;;;16.26;57.25;101180.09;4976715;28;6993;-74
2022/09/20 02:28:44;;;;;;;;;;;;;;;16.24;57.34;101182.59;4976299;28;8150;-74
2022/09/20 02:31:53;;;;;;;;;;;;;;;16.22;57.49;101179.97;4970419;28;6840;-75
2022/09/20 02:34:49;;;;;;;;;;;;;;;16.23;57.50;101178.25;4971854;28;7181;-75
2022/09/20 02:37:45;;;;;;;;;;;;;;;16.21;57.91;101173.00;4974241;28;7014;-74
2022/09/20 02:40:35;;;;;;;;;;;;;;;16.22;57.57;101169.63;4964520;28;7930;-74
2022/09/20 02:43:30;;;;;;;;;;;;;;;16.23;57.62;101173.97;4975367;28;7234;-74
2022/09/20 02:46:23;;;;;;;;;;;;;;;16.24;57.74;101173.16;4972984;28;7234;-74
2022/09/20 02:49:25;;;;;;;;;;;;;;;16.27;57.81;101179.25;4965570;28;7226;-75
2022/09/20 02:52:12;;;;;;;;;;;;;;;16.24;57.95;101167.97;4964505;28;8066;-74
2022/09/20 02:55:04;;;;;;;;;;;;;;;16.24;57.62;101167.97;4970188;28;7040;-75
2022/09/20 02:58:26;;;;;;;;;;;;;;;16.22;57.83;101164.47;4963351;28;7196;-74
2022/09/20 03:01:10;;;;;;;;;;;;;;;16.20;58.27;101170.41;4975267;28;7567;-74
2022/09/20 03:04:16;;;;;;;;;;;;;;;16.19;58.02;101171.22;4983244;28;7158;-74
2022/09/20 03:07:11;;;;;;;;;;;;;;;16.17;57.86;101165.97;4980572;28;7912;-75
2022/09/20 03:10:04;;;;;;;;;;;;;;;16.18;58.10;101166.88;4976381;28;6895;-74
2022/09/20 03:13:01;;;;;;;;;;;;;;;16.14;57.98;101160.72;4987212;28;8155;-74
2022/09/20 03:15:49;;;;;;;;;;;;;;;16.15;58.15;101165.03;4976760;28;7009;-75
2022/09/20 03:18:25;;;;;;;;;;;;;;;16.15;57.92;101161.56;4971502;28;7047;-75
2022/09/20 03:21:16;;;;;;;;;;;;;;;16.16;58.59;101161.63;4971921;28;6946;-74
2022/09/20 03:24:12;;;;;;;;;;;;;;;16.16;57.85;101166.81;4972194;28;7055;-73
2022/09/20 03:27:06;;;;;;;;;;;;;;;16.15;58.21;101158.97;4973105;28;6967;-73
2022/09/20 03:29:54;;;;;;;;;;;;;;;16.15;58.20;101156.41;4987067;28;8278;-74
2022/09/20 03:32:35;;;;;;;;;;;;;;;16.13;58.46;101158.94;4966639;28;7153;-74
2022/09/20 03:35:18;;;;;;;;;;;;;;;16.10;57.89;101166.56;4977266;28;6957;-74
2022/09/20 03:38:09;;;;;;;;;;;;;;;16.07;58.00;101174.22;4975194;28;7275;-74
2022/09/20 03:41:00;;;;;;;;;;;;;;;16.04;58.03;101177.56;4980358;28;7202;-74
2022/09/20 03:43:56;;;;;;;;;;;;;;;16.03;57.85;101172.31;4979037;28;6985;-75
2022/09/20 03:46:28;;;;;;;;;;;;;;;16.02;58.43;101183.50;4976815;28;6859;-74
2022/09/20 03:49:27;;;;;;;;;;;;;;;16.00;58.10;101172.22;4991470;28;8130;-74
2022/09/20 03:52:16;;;;;;;;;;;;;;;15.99;57.93;101176.53;4980557;28;6840;-74
2022/09/20 03:55:07;;;;;;;;;;;;;;;15.98;58.51;101182.50;4983931;28;7175;-72
2022/09/20 03:58:13;;;;;;;;;;;;;;;15.94;58.06;101183.22;4983369;28;8385;-74
2022/09/20 04:01:07;;;;;;;;;;;;;;;15.91;58.91;101183.09;4993928;28;7102;-74
2022/09/20 04:04:07;;;;;;;;;;;;;;;15.87;58.26;101189.81;4981487;28;7163;-74
2022/09/20 04:07:15;;;;;;;;;;;;;;;15.82;58.43;101184.47;4978720;28;7448;-74
2022/09/20 04:10:18;;;;;;;;;;;;;;;15.79;58.59;101183.47;4977052;28;7159;-74
2022/09/20 04:13:24;;;;;;;;;;;;;;;15.77;59.10;101193.72;4974641;28;6839;-74
2022/09/20 04:16:33;;;;;;;;;;;;;;;15.77;59.38;101190.28;4980505;28;6895;-74
2022/09/20 04:19:09;;;;;;;;;;;;;;;15.77;59.21;101190.28;4981124;28;6887;-72
2022/09/20 04:21:52;;;;;;;;;;;;;;;15.79;58.95;101192.13;4976056;28;6815;-74
2022/09/20 04:24:27;;;;;;;;;;;;;;;15.82;59.41;101189.63;4974036;28;7246;-74
2022/09/20 04:27:09;;;;;;;;;;;;;;;15.85;59.19;101199.22;4978420;28;6807;-74
2022/09/20 04:29:49;;;;;;;;;;;;;;;15.87;59.19;101187.22;4969252;28;7008;-74
2022/09/20 04:32:27;;;;;;;;;;;;;;;15.89;59.34;101193.34;4982348;28;6883;-74
2022/09/20 04:38:20;;;;;;;;;;;;;;;15.91;59.11;101193.44;4979962;28;7102;-75
2022/09/20 04:41:01;;;;;;;;;;;;;;;15.94;59.82;101189.28;4974535;28;7026;-74
2022/09/20 04:44:29;;;;;;;;;;;;;;;15.95;59.42;101187.56;4979358;28;6957;-74
2022/09/20 04:47:32;;;;;;;;;;;;;;;15.94;59.89;101180.63;4957122;28;6963;-74
2022/09/20 04:50:34;;;;;;;;;;;;;;;15.94;59.37;101189.28;4974759;28;6987;-75
2022/09/20 04:53:47;;;;;;;;;;;;;;;15.95;59.44;101193.63;4979119;28;8629;-74
2022/09/20 04:56:40;;;;;;;;;;;;;;;15.96;59.69;101204.81;4973491;28;7194;-74
2022/09/20 04:59:21;;;;;;;;;;;;;;;15.98;60.04;101199.72;4982543;28;6827;-74
2022/09/20 05:02:42;;;;;;;;;;;;;;;15.98;59.68;101199.72;4976341;28;7205;-74
2022/09/20 05:05:46;;;;;;;;;;;;;;;15.97;59.69;101201.41;4930157;28;7243;-74
2022/09/20 05:08:33;;;;;;;;;;;;;;;15.94;59.80;101211.66;4991353;28;7008;-74
2022/09/20 05:11:14;;;;;;;;;;;;;;;15.92;59.98;101211.56;4989385;28;8917;-75
2022/09/20 05:14:27;;;;;;;;;;;;;;;15.91;59.43;101212.41;4982651;28;7137;-75
2022/09/20 05:17:24;;;;;;;;;;;;;;;15.91;59.61;101214.13;4976039;28;6970;-74
2022/09/20 05:20:33;;;;;;;;;;;;;;;15.90;59.75;101217.50;4962222;28;7266;-74
2022/09/20 05:23:33;;;;;;;;;;;;;;;15.89;60.06;101214.00;4985725;28;8531;-73
2022/09/20 05:26:09;;;;;;;;;;;;;;;15.90;59.69;101205.47;4977065;28;6985;-75
2022/09/20 05:29:09;;;;;;;;;;;;;;;15.92;59.94;101209.00;4976460;28;7160;-74
2022/09/20 05:31:53;;;;;;;;;;;;;;;15.93;60.22;101213.38;4962348;28;7444;-75
2022/09/20 05:34:55;;;;;;;;;;;;;;;15.93;59.66;101221.13;4982504;28;6895;-75
2022/09/20 05:38:05;;;;;;;;;;;;;;;15.93;59.75;101217.63;4988623;28;7169;-75
2022/09/20 05:40:54;;;;;;;;;;;;;;;15.93;60.17;101226.28;4979906;28;7245;-74
2022/09/20 05:43:31;;;;;;;;;;;;;;;15.95;59.93;101229.81;4978411;28;7043;-74
2022/09/20 05:46:48;;;;;;;;;;;;;;;16.00;60.32;101234.25;4970702;28;6836;-74
2022/09/20 05:50:03;;;;;;;;;;;;;;;16.02;60.19;101232.63;4966547;28;6820;-75
2022/09/20 05:52:36;;;;;;;;;;;;;;;16.07;60.18;101234.56;4945607;28;7345;-74
2022/09/20 05:55:22;;;;;;;;;;;;;;;16.14;60.08;101240.88;4978447;28;6965;-74
2022/09/20 05:58:28;;;;;;;;;;;;;;;16.18;60.01;101234.97;4979662;28;7082;-74
2022/09/20 06:01:25;;;;;;;;;;;;;;;16.20;60.48;101245.38;4980267;28;7224;-74
2022/09/20 06:04:33;;;;;;;;;;;;;;;16.24;60.56;101250.75;4975326;28;6812;-73
2022/09/20 06:07:16;;;;;;;;;;;;;;;16.29;60.54;101244.84;4981365;28;7144;-73
2022/09/20 06:10:32;;;;;;;;;;;;;;;16.36;60.47;101249.44;4976354;28;6800;-74
2022/09/20 06:13:19;;;;;;;;;;;;;;;16.41;60.21;101247.03;4981718;28;6832;-74
2022/09/20 06:15:57;;;;;;;;;;;;;;;16.45;60.05;101239.44;4982225;28;7262;-74
2022/09/20 06:18:37;;;;;;;;;;;;;;;16.45;59.81;101226.50;4969579;28;6800;-76
2022/09/20 06:21:45;;;;;;;;;;;;;;;16.47;60.13;101226.56;4975185;28;7035;-76
2022/09/20 06:24:22;;;;;;;;;;;;;;;16.45;60.29;101212.66;4921483;28;6816;-75
2022/09/20 06:26:54;;;;;;;;;;;;;;;16.46;60.06;101217.91;4964578;28;7875;-74
2022/09/20 06:29:32;;;;;;;;;;;;;;;16.52;60.60;101220.72;4990788;28;6823;-74
2022/09/20 06:31:58;;;;;;;;;;;;;;;16.59;60.16;101231.28;4965911;28;7013;-75
2022/09/20 06:34:25;;;;;;;;;;;;;;;16.63;60.18;101226.28;4973094;28;6848;-75
2022/09/20 06:43:21;;;;;;;;;;;;;;;16.86;60.47;101230.53;4974653;28;7025;-75
2022/09/20 06:45:47;;;;;;;;;;;;;;;16.93;60.39;101220.44;4976456;28;6847;-73
2022/09/20 06:48:14;;;;;;;;;;;;;;;17.00;60.33;101223.25;4948652;28;6890;-73
2022/09/20 06:50:44;;;;;;;;;;;;;;;17.08;60.34;101233.06;4966807;28;8603;-74
2022/09/20 06:53:31;;;;;;;;;;;;;;;17.17;60.25;101241.97;4956193;28;6853;-74
2022/09/20 06:55:59;;;;;;;;;;;;;;;17.25;59.99;101245.72;4978466;28;6967;-74
2022/09/20 06:58:25;;;;;;;;;;;;;;;17.33;60.22;101252.03;4961326;28;8456;-73
2022/09/20 07:00:52;;;;;;;;;;;;;;;17.43;60.19;101249.75;4978562;28;6775;-73
2022/09/20 07:03:20;;;;;;;;;;;;;;;17.53;59.91;101256.13;4981606;28;6872;-73
2022/09/20 07:05:47;;;;;;;;;;;;;;;17.62;59.69;101256.41;4979757;28;7376;-74
2022/09/20 07:08:12;;;;;;;;;;;;;;;17.72;59.57;101258.50;4958419;28;8535;-73
2022/09/20 07:10:38;;;;;;;;;;;;;;;17.81;59.59;101263.09;4975277;28;7866;-74
2022/09/20 07:13:05;;;;;;;;;;;;;;;17.90;59.16;101263.38;4981520;28;9603;-74
2022/09/20 07:15:33;;;;;;;;;;;;;;;17.95;59.01;101266.13;4968973;28;6796;-74
2022/09/20 07:17:59;;;;;;;;;;;;;;;17.99;59.24;101267.09;4970069;28;7011;-74
2022/09/20 07:20:25;;;;;;;;;;;;;;;18.00;59.12;101264.53;4981541;28;6855;-74
2022/09/20 07:22:52;;;;;;;;;;;;;;;18.04;58.73;101270.75;4978839;28;6800;-74
2022/09/20 07:25:19;;;;;;;;;;;;;;;18.10;59.13;101272.63;4981469;28;6816;-74
2022/09/20 07:27:49;;;;;;;;;;;;;;;18.16;58.21;101271.13;4981236;28;6969;-74
2022/09/20 07:30:16;;;;;;;;;;;;;;;18.22;58.60;101267.84;4974248;28;7897;-74
2022/09/20 07:32:41;;;;;;;;;;;;;;;18.30;59.25;101278.44;4972711;28;6815;-74
2022/09/20 07:35:10;;;;;;;;;;;;;;;18.37;58.41;101274.31;4981881;28;7417;-74
2022/09/20 07:37:36;;;;;;;;;;;;;;;18.43;58.42;101269.31;4973677;28;6991;-74
2022/09/20 07:40:04;;;;;;;;;;;;;;;18.48;58.35;101277.25;4971173;28;6863;-74
2022/09/20 07:42:30;;;;;;;;;;;;;;;18.55;58.44;101285.25;4964146;28;7012;-74
2022/09/20 07:44:56;;;;;;;;;;;;;;;18.64;58.04;101276.88;4984325;28;6799;-74
2022/09/20 07:47:24;;;;;;;;;;;;;;;18.74;58.11;101268.50;4991976;28;6776;-74
2022/09/20 07:49:50;;;;;;;;;;;;;;;18.84;57.55;101272.22;4972133;28;6784;-74
2022/09/20 07:52:17;;;;;;;;;;;;;;;18.94;57.66;101272.47;4975737;28;7381;-74
2022/09/20 07:54:46;;;;;;;;;;;;;;;18.99;56.77;101282.16;4980496;28;6816;-74
2022/09/20 07:57:12;;;;;;;;;;;;;;;19.00;56.95;101277.84;4981914;28;8165;-74
2022/09/20 07:59:37;;;;;;;;;;;;;;;18.97;56.38;101286.44;4982190;28;6820;-75
2022/09/20 08:02:03;;;;;;;;;;;;;;;18.93;56.15;101294.09;4972918;28;6822;-74
2022/09/20 08:04:29;;;;;;;;;;;;;;;18.92;56.33;101294.94;4997540;28;6772;-75
2022/09/20 08:06:56;;;;;;;;;;;;;;;18.99;56.91;101292.53;4972495;28;7981;-75
2022/09/20 08:09:22;;;;;;;;;;;;;;;19.08;56.79;101294.56;4976926;28;7024;-75
2022/09/20 08:11:48;;;;;;;;;;;;;;;19.14;56.44;101299.03;4982268;28;6803;-75
2022/09/20 08:14:16;;;;;;;;;;;;;;;19.18;56.36;101293.06;4973560;28;6784;-75
2022/09/20 08:16:46;;;;;;;;;;;;;;;19.24;56.29;101294.94;4985828;28;6942;-75
2022/09/20 08:19:22;;;;;;;;;;;;;;;19.35;55.78;101295.25;4981118;28;7151;-75
2022/09/20 08:21:52;;;;;;;;;;;;;;;19.49;56.48;101293.84;4977110;28;6875;-75
2022/09/20 08:24:17;;;;;;;;;;;;;;;19.68;56.04;101294.31;4958045;28;7055;-75
2022/09/20 08:26:44;;;;;;;;;;;;;;;19.83;55.85;101294.72;4979197;28;7013;-75
2022/09/20 08:29:11;;;;;;;;;;;;;;;20.04;55.60;101298.69;4965620;28;7002;-75
2022/09/20 08:31:41;;;;;;;;;;;;;;;20.25;55.38;101295.69;4978637;28;7039;-75
2022/09/20 08:34:11;;;;;;;;;;;;;;;20.44;55.12;101292.59;4980105;28;6977;-75
2022/09/20 08:36:44;;;;;;;;;;;;;;;20.59;54.68;101289.44;4980223;28;6800;-75
2022/09/20 08:39:10;;;;;;;;;;;;;;;20.74;54.31;101287.16;4989728;28;6966;-76
2022/09/20 08:41:57;;;;;;;;;;;;;;;20.90;54.26;101288.38;4973999;28;7011;-75
2022/09/20 08:44:32;;;;;;;;;;;;;;;21.05;53.42;101292.09;4982936;28;6987;-75
2022/09/20 08:47:21;;;;;;;;;;;;;;;21.12;52.78;101298.34;4976138;28;7189;-75
2022/09/20 08:49:51;;;;;;;;;;;;;;;21.15;52.65;101296.66;4966563;28;6998;-75
2022/09/20 08:52:29;;;;;;;;;;;;;;;21.19;52.17;101294.97;4981556;28;6972;-75
2022/09/20 08:54:58;;;;;;;;;;;;;;;21.21;51.96;101304.59;4963044;28;8084;-75
2022/09/20 08:57:31;;;;;;;;;;;;;;;21.20;51.49;101297.63;4977292;28;6808;-75
2022/09/20 09:00:00;;;;;;;;;;;;;;;21.21;51.37;101303.72;4978534;28;7031;-75
2022/09/20 09:02:30;;;;;;;;;;;;;;;21.18;51.10;101307.16;4973075;28;7174;-75
2022/09/20 09:04:57;;;;;;;;;;;;;;;21.15;51.03;101299.28;4977869;28;7185;-75
2022/09/20 09:07:26;;;;;;;;;;;;;;;21.16;50.94;101301.03;4977554;28;6816;-76
2022/09/20 09:09:55;;;;;;;;;;;;;;;21.19;50.98;101305.41;4979356;28;6970;-75
2022/09/20 09:12:25;;;;;;;;;;;;;;;21.23;50.45;101302.03;4970422;28;6841;-75
2022/09/20 09:14:58;;;;;;;;;;;;;;;21.25;50.16;101299.44;4982382;28;7157;-75
2022/09/20 09:17:28;;;;;;;;;;;;;;;21.25;49.96;101294.25;4992335;28;7244;-75
2022/09/20 09:20:13;;;;;;;;;;;;;;;21.27;49.65;101292.53;4974034;28;7262;-75
2022/09/20 09:22:44;;;;;;;;;;;;;;;21.25;49.58;101304.66;4985198;28;6962;-75
2022/09/20 09:25:23;;;;;;;;;;;;;;;21.18;49.51;101299.31;4962469;28;7290;-75
2022/09/20 09:28:11;;;;;;;;;;;;;;;21.11;49.27;101302.66;4989822;28;6991;-75
2022/09/20 09:30:46;;;;;;;;;;;;;;;21.05;49.69;101307.75;4977009;28;6812;-76
2022/09/20 09:33:24;;;;;;;;;;;;;;;21.01;49.36;101301.63;4976316;28;6824;-75
2022/09/20 09:36:03;;;;;;;;;;;;;;;21.04;49.95;101301.66;4980211;28;7711;-75
2022/09/20 09:38:35;;;;;;;;;;;;;;;21.12;49.77;101294.00;4980136;28;7003;-75
2022/09/20 09:41:25;;;;;;;;;;;;;;;21.22;49.78;101301.13;4965439;28;6992;-73
2022/09/20 09:44:08;;;;;;;;;;;;;;;21.33;49.19;101301.31;4964087;28;6994;-73
2022/09/20 09:46:37;;;;;;;;;;;;;;;21.41;48.86;101300.59;4978708;28;6820;-73
2022/09/20 09:49:15;;;;;;;;;;;;;;;21.55;48.63;101295.63;4978053;28;6997;-73
2022/09/20 09:52:03;;;;;;;;;;;;;;;21.73;48.25;101301.16;4975974;28;7134;-72
2022/09/20 09:54:41;;;;;;;;;;;;;;;21.85;47.73;101299.59;4976079;28;6900;-73
2022/09/20 09:58:02;;;;;;;;;;;;;;;21.95;47.52;101301.50;4959536;28;7309;-73
2022/09/20 10:00:30;;;;;;;;;;;;;;;21.99;47.30;101297.22;4961606;28;6832;-74
2022/09/20 10:02:55;;;;;;;;;;;;;;;21.95;46.73;101296.28;4981213;28;6988;-74
2022/09/20 10:05:29;;;;;;;;;;;;;;;21.92;46.62;101304.94;4977421;28;6772;-74
2022/09/20 10:08:00;;;;;;;;;;;;;;;21.92;46.92;101299.72;4977999;28;6987;-73
2022/09/20 10:10:53;;;;;;;;;;;;;;;21.97;46.71;101302.41;4977345;28;7026;-74
2022/09/20 10:13:45;;;;;;;;;;;;;;;22.08;47.13;101301.66;4977948;28;7141;-74
2022/09/20 10:16:52;;;;;;;;;;;;;;;22.77;47.33;101293.03;4979643;28;6820;-74
2022/09/20 10:20:00;;;;;;;;;;;;;;;24.04;45.45;101286.34;4970844;28;6824;-74
2022/09/20 10:22:54;;;;;;;;;;;;;;;25.58;43.17;101278.97;4976853;28;6880;-74
2022/09/20 10:25:48;;;;;;;;;;;;;;;27.01;41.45;101277.66;4972721;28;7307;-74
2022/09/20 10:28:49;;;;;;;;;;;;;;;28.37;39.42;101275.53;4981721;28;6828;-74
2022/09/20 10:31:56;;;;;;;;;;;;;;;29.37;38.42;101263.56;4966190;28;7003;-76
2022/09/20 10:34:52;;;;;;;;;;;;;;;30.09;37.03;101267.59;4969458;28;7238;-76
2022/09/20 10:37:35;;;;;;;;;;;;;;;30.54;35.77;101270.19;4989564;28;7339;-75
2022/09/20 10:40:22;;;;;;;;;;;;;;;30.54;35.32;101264.00;4972663;28;7256;-75
2022/09/20 10:43:14;;;;;;;;;;;;;;;30.65;34.50;101266.44;4988664;28;8368;-75
2022/09/20 10:46:25;;;;;;;;;;;;;;;30.09;34.57;101264.94;4973971;28;8517;-75
2022/09/20 10:49:10;;;;;;;;;;;;;;;30.27;33.83;101255.75;4962517;28;8734;-75
2022/09/20 10:52:05;;;;;;;;;;;;;;;30.05;33.78;101264.13;4974640;28;6991;-74
2022/09/20 10:54:37;;;;;;;;;;;;;;;30.13;33.36;101264.84;4979295;28;7064;-74
2022/09/20 10:57:52;;;;;;;;;;;;;;;30.74;32.26;101250.38;4976199;28;7213;-75
2022/09/20 11:00:22;;;;;;;;;;;;;;;31.43;31.75;101255.75;4988492;28;7373;-74
2022/09/20 11:03:17;;;;;;;;;;;;;;;32.01;30.71;101246.28;4977728;28;7101;-75
2022/09/20 11:06:07;;;;;;;;;;;;;;;32.36;29.98;101251.47;4974676;28;6816;-75
2022/09/20 11:08:37;;;;;;;;;;;;;;;32.93;29.80;101246.19;4980763;28;7090;-76
2022/09/20 11:11:21;;;;;;;;;;;;;;;33.52;28.44;101254.91;4990704;28;7259;-74
2022/09/20 11:14:09;;;;;;;;;;;;;;;32.94;27.93;101258.56;4971275;28;6879;-75
2022/09/20 11:16:46;;;;;;;;;;;;;;;31.36;28.58;101264.78;4975839;28;6953;-74
2022/09/20 11:19:39;;;;;;;;;;;;;;;29.96;29.50;101275.75;4978216;28;6819;-75
2022/09/20 11:22:29;;;;;;;;;;;;;;;28.50;30.44;101283.31;4992341;28;7050;-75
2022/09/20 11:25:39;;;;;;;;;;;;;;;27.43;31.38;101285.25;4987662;28;7620;-75
2022/09/20 11:28:47;;;;;;;;;;;;;;;26.38;32.52;101287.59;4983503;28;7293;-74
2022/09/20 11:31:13;;;;;;;;;;;;;;;25.79;33.03;101285.09;4987068;28;6880;-75
2022/09/20 11:33:51;;;;;;;;;;;;;;;25.42;33.14;101287.69;4975223;28;7126;-74
2022/09/20 11:36:38;;;;;;;;;;;;;;;24.96;33.83;101289.38;4977946;28;7196;-76
2022/09/20 11:39:34;;;;;;;;;;;;;;;24.46;33.66;101291.81;4968614;28;7169;-76
2022/09/20 11:42:04;;;;;;;;;;;;;;;23.95;34.86;101308.09;4972831;28;7101;-75
2022/09/20 11:44:30;;;;;;;;;;;;;;;23.60;35.13;101300.84;4984058;28;6946;-76
2022/09/20 11:47:20;;;;;;;;;;;;;;;23.23;35.04;101304.00;4994030;28;6788;-76
2022/09/20 11:50:20;;;;;;;;;;;;;;;22.86;35.35;101308.81;4956776;28;7226;-76
2022/09/20 11:53:30;;;;;;;;;;;;;;;;;;4980627;28;7142;-76
2022/09/20 11:56:00;;;;;;;;;;;;;;;22.15;36.15;101312.22;4975352;28;6824;-76
2022/09/20 11:58:26;;;;;;;;;;;;;;;21.91;36.58;101317.94;4972816;28;7353;-76
2022/09/20 12:00:58;;;;;;;;;;;;;;;21.64;36.78;101314.88;4972479;28;6975;-75
2022/09/20 12:03:39;;;;;;;;;;;;;;;21.45;37.25;101316.31;4972759;28;8815;-76
2022/09/20 12:06:19;;;;;;;;;;;;;;;21.28;37.29;101317.75;4973549;28;7062;-76
2022/09/20 12:08:50;;;;;;;;;;;;;;;21.12;37.87;101320.06;4979021;28;7144;-75
2022/09/20 12:11:34;;;;;;;;;;;;;;;21.01;38.19;101332.91;4964931;28;7043;-76
2022/09/20 12:14:16;;;;;;;;;;;;;;;20.90;38.40;101339.59;4965929;28;6848;-76
2022/09/20 12:16:46;;;;;;;;;;;;;;;20.75;38.86;101343.63;4962718;28;7280;-76
2022/09/20 12:19:20;;;;;;;;;;;;;;;20.59;38.80;101344.13;4996997;28;7244;-76
2022/09/20 12:21:57;;;;;;;;;;;;;;;20.31;39.30;101344.41;4989840;28;6914;-76
2022/09/20 12:24:33;;;;;;;;;;;;;;;20.03;40.04;101348.97;4985995;28;7304;-78
2022/09/20 12:27:28;;;;;;;;;;;;;;;19.63;41.13;101353.16;4979751;28;6982;-78
2022/09/20 12:30:17;;;;;;;;;;;;;;;19.25;41.33;101352.16;4976807;28;7168;-76
2022/09/20 12:32:57;;;;;;;;;;;;;;;18.94;42.43;101351.28;4979621;28;11395;-77
2022/09/20 12:35:34;;;;;;;;;;;;;;;18.70;43.51;101352.31;4971708;28;7679;-76
2022/09/20 12:38:38;;;;;;;;;;;;;;;18.56;44.34;101348.44;4983863;28;7318;-76
2022/09/20 12:41:11;;;;;;;;;;;;;;;18.50;45.00;101350.84;4883974;29;7440;-77
2022/09/20 12:43:51;;;;;;;;;;;;;;;18.46;45.18;101348.16;4960398;28;7392;-77
2022/09/20 12:46:30;;;;;;;;;;;;;;;18.50;46.13;101353.44;4974418;28;8718;-76
2022/09/20 12:52:56;;;;;;;;;;;;;;;18.60;46.73;101353.78;4973770;28;6812;-76
2022/09/20 12:55:55;;;;;;;;;;;;;;;18.74;46.80;101349.00;4979527;28;7306;-76
2022/09/20 12:58:52;;;;;;;;;;;;;;;18.94;47.01;101345.19;4984589;28;7247;-76
2022/09/20 13:01:17;;;;;;;;;;;;;;;19.10;46.85;101341.34;4961316;28;6874;-76
2022/09/20 13:03:48;;;;;;;;;;;;;;;19.29;46.04;101346.19;4984497;28;7925;-76
2022/09/20 13:06:15;;;;;;;;;;;;;;;19.50;46.80;101339.81;4973263;28;7162;-76
2022/09/20 13:08:59;;;;;;;;;;;;;;;19.77;46.28;101343.97;4965438;28;7986;-76
2022/09/20 13:11:53;;;;;;;;;;;;;;;20.04;45.78;101340.31;4972082;28;7057;-76
2022/09/20 13:14:30;;;;;;;;;;;;;;;20.27;45.87;101339.97;4969535;28;6812;-72
2022/09/20 13:17:05;;;;;;;;;;;;;;;20.51;45.10;101338.78;4978041;28;7018;-73
2022/09/20 13:19:41;;;;;;;;;;;;;;;20.74;44.73;101338.38;4972709;28;7146;-76
2022/09/20 13:22:23;;;;;;;;;;;;;;;21.06;44.80;101339.06;4961478;28;7252;-77
2022/09/20 13:24:56;;;;;;;;;;;;;;;21.33;43.85;101335.22;4988118;28;6816;-77
2022/09/20 13:27:34;;;;;;;;;;;;;;;21.51;43.32;101329.44;4969596;28;6878;-77
2022/09/20 13:30:20;;;;;;;;;;;;;;;21.57;43.20;101331.28;4981474;28;6820;-76
2022/09/20 13:32:49;;;;;;;;;;;;;;;21.56;42.81;101334.75;5000382;28;11281;-76
2022/09/20 13:35:22;;;;;;;;;;;;;;;21.51;42.56;101324.22;4975779;28;6998;-76
2022/09/20 13:37:56;;;;;;;;;;;;;;;21.55;42.35;101319.94;4983255;28;6847;-76
2022/09/20 13:40:35;;;;;;;;;;;;;;;21.55;42.06;101319.94;4981423;28;6792;-76
2022/09/20 13:43:06;;;;;;;;;;;;;;;21.54;42.10;101322.56;4999156;28;7251;-76
2022/09/20 13:45:32;;;;;;;;;;;;;;;21.61;42.67;101317.47;4981026;28;6995;-76
2022/09/20 13:48:00;;;;;;;;;;;;;;;21.71;41.95;101318.50;4999185;28;6884;-77
2022/09/20 13:50:27;;;;;;;;;;;;;;;21.80;42.30;101314.28;4981290;28;6954;-76
2022/09/20 13:53:12;;;;;;;;;;;;;;;21.96;42.31;101324.13;5000993;28;6973;-76
2022/09/20 13:55:42;;;;;;;;;;;;;;;22.13;41.68;101316.53;4983338;28;7165;-76
2022/09/20 13:58:29;;;;;;;;;;;;;;;22.19;41.22;101319.25;4971096;28;6979;-76
2022/09/20 14:01:18;;;;;;;;;;;;;;;22.15;40.56;101316.56;4982567;28;7470;-76
2022/09/20 14:03:44;;;;;;;;;;;;;;;22.14;40.42;101322.66;4967845;28;7047;-76
2022/09/20 14:06:14;;;;;;;;;;;;;;;22.11;40.51;101314.75;4982393;28;7250;-77
2022/09/20 14:08:50;;;;;;;;;;;;;;;22.11;40.78;101319.97;4999459;28;7018;-75
2022/09/20 14:11:31;;;;;;;;;;;;;;;22.10;40.42;101313.00;4984301;28;7223;-76
2022/09/20 14:14:04;;;;;;;;;;;;;;;22.08;40.29;101314.72;4981342;28;7022;-77
2022/09/20 14:16:36;;;;;;;;;;;;;;;22.01;39.99;101319.84;4981926;28;7035;-74
2022/09/20 14:19:06;;;;;;;;;;;;;;;21.89;39.77;101306.63;4982367;28;6887;-74